createdAt,value
2022-09-23T00:01:21.690Z,13.91
2022-09-23T00:03:49.305Z,13.90
2022-09-23T00:06:22.943Z,13.85
2022-09-23T00:08:51.652Z,13.84
2022-09-23T00:11:25.906Z,13.85
2022-09-23T00:13:58.747Z,13.82
2022-09-23T00:16:34.051Z,13.78
2022-09-23T00:19:03.163Z,13.76
2022-09-23T00:21:30.474Z,13.71
2022-09-23T00:23:57.506Z,13.67
2022-09-23T00:26:25.156Z,13.66
2022-09-23T00:28:52.596Z,13.62
2022-09-23T00:31:24.729Z,13.60
2022-09-23T00:33:57.891Z,13.57
2022-09-23T00:36:25.697Z,13.54
2022-09-23T00:38:54.300Z,13.52
2022-09-23T00:41:21.782Z,13.53
2022-09-23T00:44:00.910Z,13.52
2022-09-23T00:46:37.731Z,13.45
2022-09-23T00:49:25.050Z,13.41
2022-09-23T00:51:58.986Z,13.39
2022-09-23T00:54:27.788Z,13.37
2022-09-23T00:56:56.442Z,13.35
2022-09-23T00:59:24.502Z,13.30
2022-09-23T01:01:54.887Z,13.34
2022-09-23T01:04:27.291Z,13.27
2022-09-23T01:06:54.331Z,13.27
2022-09-23T01:09:22.772Z,13.24
2022-09-23T01:12:18.646Z,13.21
2022-09-23T01:15:11.463Z,13.19
2022-09-23T01:17:52.074Z,13.19
2022-09-23T01:21:17.271Z,13.14
2022-09-23T01:24:37.849Z,13.11
2022-09-23T01:27:17.914Z,13.08
2022-09-23T01:30:16.724Z,13.08
2022-09-23T01:33:04.683Z,13.07
2022-09-23T01:36:07.160Z,13.08
2022-09-23T01:38:50.018Z,13.05
2022-09-23T01:41:35.715Z,13.05
2022-09-23T01:44:23.061Z,13.06
2022-09-23T01:47:02.512Z,13.07
2022-09-23T01:49:42.652Z,13.08
2022-09-23T01:52:38.835Z,13.08
2022-09-23T01:55:24.563Z,13.08
2022-09-23T01:58:14.280Z,13.03
2022-09-23T02:01:04.506Z,13.03
2022-09-23T02:04:04.204Z,12.97
2022-09-23T02:06:42.706Z,12.97
2022-09-23T02:09:15.753Z,12.95
2022-09-23T02:11:48.646Z,12.94
2022-09-23T02:14:42.789Z,12.91
2022-09-23T02:17:15.794Z,12.91
2022-09-23T02:19:58.614Z,12.86
2022-09-23T02:22:57.029Z,12.82
2022-09-23T02:25:49.060Z,12.79
2022-09-23T02:28:21.633Z,12.77
2022-09-23T02:30:59.207Z,12.74
2022-09-23T02:33:45.793Z,12.67
2022-09-23T02:36:49.637Z,12.67
2022-09-23T02:39:19.693Z,12.62
2022-09-23T02:42:02.319Z,12.59
2022-09-23T02:44:29.652Z,12.61
2022-09-23T02:46:57.854Z,12.61
2022-09-23T02:49:33.844Z,12.59
2022-09-23T02:52:04.740Z,12.49
2022-09-23T02:54:33.648Z,12.51
2022-09-23T02:57:03.506Z,12.51
2022-09-23T02:59:32.295Z,12.52
2022-09-23T03:02:52.657Z,12.46
2022-09-23T03:05:30.174Z,12.42
2022-09-23T03:08:38.828Z,12.46
2022-09-23T03:11:10.563Z,12.49
2022-09-23T03:14:18.788Z,12.46
2022-09-23T03:16:53.015Z,12.42
2022-09-23T03:19:48.425Z,12.43
2022-09-23T03:22:39.916Z,12.44
2022-09-23T03:25:15.654Z,12.38
2022-09-23T03:27:44.271Z,12.36
2022-09-23T03:30:13.130Z,12.32
2022-09-23T03:32:44.768Z,12.34
2022-09-23T03:35:13.502Z,12.34
2022-09-23T03:37:50.834Z,12.34
2022-09-23T03:40:40.189Z,12.30
2022-09-23T03:43:07.767Z,12.34
2022-09-23T03:45:36.387Z,12.34
2022-09-23T03:48:04.451Z,12.41
2022-09-23T03:50:31.566Z,12.42
2022-09-23T03:52:59.347Z,12.43
2022-09-23T03:55:26.424Z,12.42
2022-09-23T03:57:53.590Z,12.43
2022-09-23T04:00:20.674Z,12.43
2022-09-23T04:02:48.282Z,12.43
2022-09-23T04:05:15.453Z,12.45
2022-09-23T04:07:42.633Z,12.43
2022-09-23T04:10:10.823Z,12.49
2022-09-23T04:12:38.484Z,12.50
2022-09-23T04:15:06.657Z,12.50
2022-09-23T04:17:33.795Z,12.49
2022-09-23T04:20:00.924Z,12.50
2022-09-23T04:22:27.962Z,12.52
2022-09-23T04:24:55.056Z,12.54
2022-09-23T04:27:22.109Z,12.55
2022-09-23T04:29:49.100Z,12.54
2022-09-23T04:32:16.078Z,12.54
2022-09-23T04:34:43.447Z,12.57
2022-09-23T04:37:10.637Z,12.57
2022-09-23T04:39:37.728Z,12.63
2022-09-23T04:42:04.872Z,12.59
2022-09-23T04:44:31.926Z,12.60
2022-09-23T04:46:59.025Z,12.60
2022-09-23T04:49:26.526Z,12.58
2022-09-23T04:51:54.333Z,12.61
2022-09-23T04:54:21.386Z,12.61
2022-09-23T04:56:48.345Z,12.61
2022-09-23T04:59:15.434Z,12.64
2022-09-23T05:01:43.095Z,12.63
2022-09-23T05:04:13.904Z,12.64
2022-09-23T05:06:45.135Z,12.65
2022-09-23T05:09:18.227Z,12.64
2022-09-23T05:11:45.977Z,12.63
2022-09-23T05:14:13.268Z,12.65
2022-09-23T05:16:40.899Z,12.65
2022-09-23T05:19:08.247Z,12.65
2022-09-23T05:21:37.111Z,12.69
2022-09-23T05:24:04.453Z,12.65
2022-09-23T05:26:32.558Z,12.70
2022-09-23T05:29:00.323Z,12.71
2022-09-23T05:31:30.256Z,12.70
2022-09-23T05:34:01.402Z,12.71
2022-09-23T05:36:35.547Z,12.71
2022-09-23T05:39:05.977Z,12.71
2022-09-23T05:41:33.992Z,12.72
2022-09-23T05:44:01.587Z,12.68
2022-09-23T05:46:31.224Z,12.70
2022-09-23T05:49:03.702Z,12.68
2022-09-23T05:51:32.875Z,12.74
2022-09-23T05:54:04.271Z,12.78
2022-09-23T05:56:33.388Z,12.74
2022-09-23T05:59:02.427Z,12.76
2022-09-23T06:01:35.410Z,12.74
2022-09-23T06:04:06.708Z,12.74
2022-09-23T06:06:40.150Z,12.75
2022-09-23T06:09:11.257Z,12.75
2022-09-23T06:11:38.322Z,12.78
2022-09-23T06:14:06.003Z,12.78
2022-09-23T06:16:35.517Z,12.81
2022-09-23T06:19:06.454Z,12.81
2022-09-23T06:21:38.006Z,12.80
2022-09-23T06:24:06.611Z,12.82
2022-09-23T06:26:35.565Z,12.85
2022-09-23T06:29:04.430Z,12.84
2022-09-23T06:31:32.110Z,12.89
2022-09-23T06:34:09.255Z,12.92
2022-09-23T06:36:43.973Z,12.93
2022-09-23T06:39:13.670Z,12.98
2022-09-23T06:41:40.866Z,12.97
2022-09-23T06:44:08.520Z,13.03
2022-09-23T06:46:40.094Z,13.08
2022-09-23T06:49:07.271Z,13.15
2022-09-23T06:51:34.658Z,13.19
2022-09-23T06:54:01.847Z,13.24
2022-09-23T06:56:31.509Z,13.28
2022-09-23T06:59:02.004Z,15.38
2022-09-23T07:01:29.118Z,16.36
2022-09-23T07:03:56.364Z,17.10
2022-09-23T07:06:23.365Z,17.57
2022-09-23T07:08:51.608Z,17.87
2022-09-23T07:11:22.429Z,18.15
2022-09-23T07:13:50.948Z,18.37
2022-09-23T07:16:18.431Z,18.56
2022-09-23T07:18:45.871Z,18.78
2022-09-23T07:21:16.682Z,18.92
2022-09-23T07:23:46.456Z,19.07
2022-09-23T07:26:15.651Z,19.20
2022-09-23T07:28:43.379Z,19.30
2022-09-23T07:31:25.806Z,19.36
2022-09-23T07:33:59.075Z,19.45
2022-09-23T07:36:28.277Z,19.55
2022-09-23T07:39:00.602Z,19.63
2022-09-23T07:41:29.209Z,19.71
2022-09-23T07:44:00.127Z,19.82
2022-09-23T07:46:31.086Z,19.85
2022-09-23T07:48:58.620Z,19.88
2022-09-23T07:51:35.383Z,19.94
2022-09-23T07:54:07.788Z,19.98
2022-09-23T07:56:36.347Z,20.00
2022-09-23T07:59:04.594Z,20.03
2022-09-23T08:01:41.246Z,20.08
2022-09-23T08:04:21.576Z,20.12
2022-09-23T08:06:55.473Z,20.16
2022-09-23T08:09:26.757Z,20.20
2022-09-23T08:11:54.839Z,20.22
2022-09-23T08:14:25.190Z,20.24
2022-09-23T08:16:52.538Z,20.23
2022-09-23T08:19:20.168Z,20.24
2022-09-23T08:21:47.872Z,20.22
2022-09-23T08:24:21.268Z,20.23
2022-09-23T08:26:49.115Z,20.26
2022-09-23T08:29:18.307Z,20.27
2022-09-23T08:31:45.420Z,20.26
2022-09-23T08:34:13.279Z,20.24
2022-09-23T08:36:40.264Z,20.23
2022-09-23T08:39:07.608Z,20.23
2022-09-23T08:41:57.514Z,20.23
2022-09-23T08:44:40.420Z,20.25
2022-09-23T08:47:20.150Z,20.26
2022-09-23T08:50:14.036Z,20.23
2022-09-23T08:52:55.236Z,20.21
2022-09-23T08:55:33.403Z,20.23
2022-09-23T08:58:30.918Z,20.23
2022-09-23T09:01:19.378Z,20.23
2022-09-23T09:03:58.219Z,20.26
2022-09-23T09:07:34.848Z,20.26
2022-09-23T09:10:03.875Z,20.27
2022-09-23T09:12:47.283Z,20.29
2022-09-23T09:15:24.693Z,20.26
2022-09-23T09:18:15.492Z,20.25
2022-09-23T09:20:59.393Z,20.25
2022-09-23T09:23:57.518Z,20.25
2022-09-23T09:26:25.859Z,20.25
2022-09-23T09:29:11.459Z,20.26
2022-09-23T09:31:50.428Z,20.27
2022-09-23T09:34:54.598Z,20.26
2022-09-23T09:37:53.719Z,20.24
2022-09-23T09:40:21.081Z,20.26
2022-09-23T09:42:50.118Z,20.28
2022-09-23T09:45:46.684Z,20.29
2022-09-23T09:48:27.985Z,20.32
2022-09-23T09:50:55.987Z,20.36
2022-09-23T09:53:35.713Z,20.39
2022-09-23T09:56:11.303Z,20.42
2022-09-23T09:58:55.897Z,20.46
2022-09-23T10:01:33.369Z,20.49
2022-09-23T10:04:35.587Z,20.51
2022-09-23T10:07:31.779Z,20.53
2022-09-23T10:10:32.741Z,20.55
2022-09-23T10:13:16.138Z,20.55
2022-09-23T10:15:45.416Z,20.56
2022-09-23T10:18:55.871Z,20.58
2022-09-23T10:21:28.082Z,20.58
2022-09-23T10:23:58.680Z,20.61
2022-09-23T10:26:34.589Z,20.61
2022-09-23T10:29:19.337Z,20.63
2022-09-23T10:31:46.342Z,20.61
2022-09-23T10:34:29.522Z,20.62
2022-09-23T10:37:14.935Z,20.65
2022-09-23T10:40:00.478Z,20.65
2022-09-23T10:43:27.831Z,20.66
2022-09-23T10:46:18.792Z,20.68
2022-09-23T10:49:09.959Z,20.68
2022-09-23T10:52:27.731Z,20.71
2022-09-23T10:55:15.660Z,20.70
2022-09-23T10:57:45.454Z,20.67
2022-09-23T11:00:37.882Z,20.71
2022-09-23T11:03:47.243Z,20.70
2022-09-23T11:06:48.861Z,20.72
2022-09-23T11:09:42.521Z,20.73
2022-09-23T11:12:24.217Z,20.71
2022-09-23T11:15:11.795Z,20.73
2022-09-23T11:18:13.099Z,20.74
2022-09-23T11:21:07.883Z,20.75
2022-09-23T11:24:15.868Z,20.79
2022-09-23T11:27:08.537Z,20.78
2022-09-23T11:30:07.817Z,20.84
2022-09-23T11:32:39.633Z,20.92
2022-09-23T11:35:31.003Z,20.90
2022-09-23T11:38:12.068Z,20.87
2022-09-23T11:40:45.639Z,20.78
2022-09-23T11:43:31.355Z,20.81
2022-09-23T11:46:23.749Z,20.79
2022-09-23T11:49:27.479Z,20.77
2022-09-23T11:52:10.832Z,20.80
2022-09-23T11:55:21.425Z,20.79
2022-09-23T11:57:57.531Z,20.73
2022-09-23T12:00:34.432Z,20.71
2022-09-23T12:03:18.607Z,20.72
2022-09-23T12:05:51.401Z,20.70
2022-09-23T12:08:29.072Z,20.70
2022-09-23T12:11:25.695Z,20.71
2022-09-23T12:14:12.024Z,20.70
2022-09-23T12:16:56.095Z,20.71
2022-09-23T12:19:43.012Z,20.69
2022-09-23T12:22:24.807Z,20.67
2022-09-23T12:24:55.611Z,20.67
2022-09-23T12:27:36.998Z,20.64
2022-09-23T12:30:17.863Z,20.65
2022-09-23T12:32:45.275Z,20.61
2022-09-23T12:35:44.789Z,20.63
2022-09-23T12:38:29.820Z,20.65
2022-09-23T12:40:57.155Z,20.68
2022-09-23T12:43:33.106Z,20.70
2022-09-23T12:46:42.920Z,20.65
2022-09-23T12:49:28.810Z,20.66
2022-09-23T12:52:16.995Z,20.67
2022-09-23T12:54:50.126Z,20.67
2022-09-23T12:57:35.546Z,20.69
2022-09-23T13:00:12.819Z,20.68
2022-09-23T13:03:11.901Z,20.69
2022-09-23T13:06:16.614Z,20.71
2022-09-23T13:08:45.694Z,20.71
2022-09-23T13:11:32.280Z,20.70
2022-09-23T13:14:05.020Z,20.66
2022-09-23T13:16:43.672Z,20.65
2022-09-23T13:19:25.885Z,20.67
2022-09-23T13:22:09.262Z,20.68
2022-09-23T13:24:43.010Z,20.64
2022-09-23T13:27:30.565Z,20.68
2022-09-23T13:30:25.734Z,20.68
2022-09-23T13:33:14.285Z,20.70
2022-09-23T13:35:51.166Z,20.65
2022-09-23T13:38:29.675Z,20.69
2022-09-23T13:41:12.319Z,20.71
2022-09-23T13:43:58.773Z,20.75
2022-09-23T13:46:40.093Z,21.44
2022-09-23T13:49:24.629Z,21.43
2022-09-23T13:51:56.589Z,21.45
2022-09-23T13:54:50.083Z,21.34
2022-09-23T13:57:34.970Z,21.26
2022-09-23T14:00:21.762Z,21.26
2022-09-23T14:02:48.803Z,21.25
2022-09-23T14:05:33.388Z,21.23
2022-09-23T14:08:01.299Z,21.21
2022-09-23T14:10:28.502Z,21.24
2022-09-23T14:12:56.849Z,21.27
2022-09-23T14:15:24.071Z,21.18
2022-09-23T14:18:03.222Z,21.17
2022-09-23T14:20:30.267Z,21.12
2022-09-23T14:23:27.087Z,21.13
2022-09-23T14:25:55.773Z,21.10
2022-09-23T14:28:26.268Z,21.10
2022-09-23T14:30:57.719Z,21.03
2022-09-23T14:33:31.473Z,20.99
2022-09-23T14:36:33.223Z,20.97
2022-09-23T14:39:12.320Z,20.95
2022-09-23T14:41:45.657Z,20.91
2022-09-23T14:44:23.700Z,20.87
2022-09-23T14:46:59.351Z,20.79
2022-09-23T14:49:27.437Z,20.76
2022-09-23T14:51:58.624Z,20.76
2022-09-23T14:54:28.664Z,20.70
2022-09-23T14:56:55.752Z,20.66
2022-09-23T14:59:36.957Z,20.64
2022-09-23T15:02:44.504Z,20.64
2022-09-23T15:05:22.200Z,20.59
2022-09-23T15:07:55.651Z,20.56
2022-09-23T15:10:37.616Z,20.51
2022-09-23T15:13:30.199Z,20.51
2022-09-23T15:16:00.173Z,20.46
2022-09-23T15:18:33.456Z,20.42
2022-09-23T15:21:11.655Z,20.37
2022-09-23T15:23:41.687Z,20.35
2022-09-23T15:26:17.028Z,20.29
2022-09-23T15:28:45.473Z,20.30
2022-09-23T15:31:15.075Z,20.26
2022-09-23T15:33:44.756Z,20.31
2022-09-23T15:36:22.366Z,20.88
2022-09-23T15:38:50.053Z,21.01
2022-09-23T15:41:20.038Z,21.05
2022-09-23T15:43:47.297Z,21.10
2022-09-23T15:46:22.436Z,21.13
2022-09-23T15:49:08.573Z,21.15
2022-09-23T15:51:37.393Z,21.16
2022-09-23T15:54:09.525Z,21.17
2022-09-23T15:56:36.557Z,21.16
2022-09-23T15:59:03.766Z,21.17
2022-09-23T16:01:36.551Z,21.15
2022-09-23T16:04:05.493Z,21.15
2022-09-23T16:06:35.285Z,20.48
2022-09-23T16:09:02.721Z,20.16
2022-09-23T16:11:34.199Z,19.98
2022-09-23T16:14:01.378Z,19.90
2022-09-23T16:16:28.935Z,19.84
2022-09-23T16:18:56.069Z,19.84
2022-09-23T16:21:30.196Z,19.84
2022-09-23T16:24:00.266Z,19.75
2022-09-23T16:26:40.777Z,19.69
2022-09-23T16:29:09.888Z,19.68
2022-09-23T16:31:38.138Z,19.60
2022-09-23T16:34:05.600Z,19.62
2022-09-23T16:36:43.046Z,19.53
2022-09-23T16:39:13.355Z,19.50
2022-09-23T16:41:43.475Z,19.41
2022-09-23T16:44:12.461Z,19.36
2022-09-23T16:46:42.869Z,19.31
2022-09-23T16:49:13.719Z,19.24
2022-09-23T16:51:41.340Z,19.19
2022-09-23T16:54:11.778Z,19.11
2022-09-23T16:56:44.324Z,19.06
2022-09-23T16:59:16.265Z,19.01
2022-09-23T17:02:02.550Z,18.98
2022-09-23T17:04:29.662Z,18.91
2022-09-23T17:06:56.867Z,18.89
2022-09-23T17:09:27.585Z,18.82
2022-09-23T17:12:09.065Z,18.78
2022-09-23T17:14:36.307Z,18.74
2022-09-23T17:17:03.388Z,18.70
2022-09-23T17:19:30.460Z,18.65
2022-09-23T17:21:57.476Z,18.64
2022-09-23T17:24:24.473Z,18.61
2022-09-23T17:26:53.273Z,18.57
2022-09-23T17:29:20.691Z,18.53
2022-09-23T17:31:47.884Z,18.50
2022-09-23T17:34:14.971Z,18.46
2022-09-23T17:36:41.948Z,18.45
2022-09-23T17:39:09.128Z,18.45
2022-09-23T17:41:37.420Z,18.43
2022-09-23T17:44:04.773Z,18.38
2022-09-23T17:46:32.187Z,18.33
2022-09-23T17:48:59.331Z,18.31
2022-09-23T17:51:27.073Z,18.27
2022-09-23T17:53:55.212Z,18.23
2022-09-23T17:56:27.032Z,18.16
2022-09-23T17:58:54.515Z,18.15
2022-09-23T18:01:24.903Z,18.09
2022-09-23T18:04:00.937Z,18.08
2022-09-23T18:06:35.480Z,18.06
2022-09-23T18:09:05.671Z,17.99
2022-09-23T18:11:39.143Z,17.95
2022-09-23T18:14:21.767Z,17.94
2022-09-23T18:16:52.329Z,17.90
2022-09-23T18:19:22.427Z,17.89
2022-09-23T18:21:53.622Z,17.87
2022-09-23T18:24:32.283Z,17.83
2022-09-23T18:27:00.626Z,17.83
2022-09-23T18:29:28.124Z,17.80
2022-09-23T18:31:55.300Z,17.75
2022-09-23T18:34:22.426Z,17.73
2022-09-23T18:36:49.639Z,17.72
2022-09-23T18:39:17.246Z,17.70
2022-09-23T18:41:44.221Z,17.70
2022-09-23T18:44:11.491Z,17.67
2022-09-23T18:46:38.564Z,17.63
2022-09-23T18:49:24.534Z,17.59
2022-09-23T18:51:55.647Z,17.56
2022-09-23T18:54:25.057Z,17.51
2022-09-23T18:56:52.853Z,17.52
2022-09-23T18:59:24.727Z,17.47
2022-09-23T19:01:55.497Z,17.49
2022-09-23T19:04:25.099Z,17.44
2022-09-23T19:06:54.000Z,17.37
2022-09-23T19:09:21.027Z,17.34
2022-09-23T19:11:52.332Z,17.32
2022-09-23T19:14:20.105Z,17.27
2022-09-23T19:16:49.188Z,17.27
2022-09-23T19:19:17.040Z,17.20
2022-09-23T19:21:44.082Z,17.21
2022-09-23T19:24:15.774Z,17.22
2022-09-23T19:26:44.092Z,17.19
2022-09-23T19:29:19.452Z,17.12
2022-09-23T19:31:46.607Z,17.13
2022-09-23T19:34:26.031Z,17.09
2022-09-23T19:36:56.876Z,17.10
2022-09-23T19:39:27.495Z,17.05
2022-09-23T19:41:58.770Z,17.02
2022-09-23T19:44:28.631Z,17.01
2022-09-23T19:46:57.012Z,17.01
2022-09-23T19:49:25.449Z,16.99
2022-09-23T19:51:55.430Z,16.97
2022-09-23T19:54:26.086Z,16.94
2022-09-23T19:56:53.271Z,16.92
2022-09-23T19:59:20.238Z,16.93
2022-09-23T20:01:48.695Z,16.91
2022-09-23T20:04:16.892Z,16.87
2022-09-23T20:06:45.880Z,16.86
2022-09-23T20:09:13.075Z,16.84
2022-09-23T20:11:44.155Z,16.86
2022-09-23T20:14:11.949Z,16.84
2022-09-23T20:16:39.115Z,16.81
2022-09-23T20:19:06.662Z,16.79
2022-09-23T20:21:34.358Z,16.78
2022-09-23T20:24:05.290Z,16.75
2022-09-23T20:26:50.877Z,16.74
2022-09-23T20:29:17.936Z,16.72
2022-09-23T20:31:45.113Z,16.72
2022-09-23T20:34:12.642Z,16.68
2022-09-23T20:36:41.751Z,16.67
2022-09-23T20:39:10.133Z,16.67
2022-09-23T20:41:39.178Z,16.64
2022-09-23T20:44:12.409Z,16.63
2022-09-23T20:46:47.902Z,16.63
2022-09-23T20:49:17.739Z,16.61
2022-09-23T20:51:45.265Z,16.59
2022-09-23T20:54:12.423Z,16.59
2022-09-23T20:56:39.755Z,16.57
2022-09-23T20:59:07.003Z,16.59
2022-09-23T21:01:36.541Z,16.56
2022-09-23T21:04:05.739Z,16.52
2022-09-23T21:06:36.660Z,16.51
2022-09-23T21:09:06.027Z,16.51
2022-09-23T21:11:33.948Z,16.50
2022-09-23T21:14:01.524Z,16.50
2022-09-23T21:16:29.051Z,16.49
2022-09-23T21:18:56.517Z,16.49
2022-09-23T21:21:24.122Z,16.46
2022-09-23T21:23:52.080Z,16.44
2022-09-23T21:26:24.701Z,16.42
2022-09-23T21:28:57.849Z,16.43
2022-09-23T21:31:36.281Z,16.44
2022-09-23T21:34:13.146Z,16.43
2022-09-23T21:36:43.329Z,16.38
2022-09-23T21:39:11.847Z,16.36
2022-09-23T21:41:40.082Z,16.35
2022-09-23T21:44:08.016Z,16.34
2022-09-23T21:46:35.843Z,16.33
2022-09-23T21:49:04.095Z,16.30
2022-09-23T21:51:38.551Z,16.30
2022-09-23T21:54:07.368Z,16.29
2022-09-23T21:56:36.457Z,16.29
2022-09-23T21:59:04.252Z,16.27
2022-09-23T22:01:44.998Z,16.26
2022-09-23T22:04:17.450Z,16.23
2022-09-23T22:06:46.146Z,16.22
2022-09-23T22:09:20.136Z,16.21
2022-09-23T22:12:07.915Z,16.15
2022-09-23T22:14:35.018Z,16.16
2022-09-23T22:17:05.904Z,16.13
2022-09-23T22:19:42.665Z,16.11
2022-09-23T22:22:16.390Z,16.13
2022-09-23T22:24:46.068Z,16.11
2022-09-23T22:27:16.061Z,16.07
2022-09-23T22:30:01.686Z,16.10
2022-09-23T22:32:40.763Z,16.11
2022-09-23T22:35:17.540Z,16.06
2022-09-23T22:37:44.989Z,16.05
2022-09-23T22:40:14.828Z,16.05
2022-09-23T22:42:43.288Z,16.05
2022-09-23T22:45:11.905Z,16.03
2022-09-23T22:47:41.311Z,16.03
2022-09-23T22:50:09.674Z,16.04
2022-09-23T22:52:37.876Z,16.03
2022-09-23T22:55:08.107Z,16.02
2022-09-23T22:57:35.948Z,16.02
2022-09-23T23:00:05.811Z,16.00
2022-09-23T23:02:33.108Z,15.97
2022-09-23T23:05:00.479Z,15.96
2022-09-23T23:07:27.561Z,15.95
2022-09-23T23:09:54.579Z,15.93
2022-09-23T23:12:21.812Z,15.94
2022-09-23T23:14:49.621Z,15.94
2022-09-23T23:17:17.375Z,15.91
2022-09-23T23:19:44.562Z,15.94
2022-09-23T23:22:11.577Z,15.95
2022-09-23T23:24:38.629Z,15.90
2022-09-23T23:27:05.729Z,15.92
2022-09-23T23:29:32.696Z,15.91
2022-09-23T23:31:59.759Z,15.90
2022-09-23T23:34:27.268Z,15.90
2022-09-23T23:36:55.273Z,15.88
2022-09-23T23:39:24.457Z,15.89
2022-09-23T23:41:56.466Z,15.91
2022-09-23T23:44:27.307Z,15.89
2022-09-23T23:46:55.179Z,15.87
2022-09-23T23:49:22.797Z,15.89
2022-09-23T23:51:50.669Z,15.89
2022-09-23T23:54:17.702Z,15.90
2022-09-23T23:56:44.817Z,15.90
2022-09-23T23:59:12.129Z,15.87
